Time;durP1;ratioP1;P1;durP2;ratioP2;P2;SDS_P1;SDS_P2;PMS_P1;PMS_P2;Temp;Humidity;BMP_temperature;BMP_pressure;BME280_temperature;BME280_humidity;BME280_pressure;Samples;Min_cycle;Max_cycle;Signal;HPM_P1;HPM_P2
2022/08/05 00:01:33;;;;;;;2.35;1.30;;;;;;;25.84;38.18;99556.41;4463224;32;34045;-80
2022/08/05 00:04:16;;;;;;;2.00;1.10;;;;;;;26.00;38.62;99550.75;4463772;32;34404;-80
2022/08/05 00:06:46;;;;;;;16.10;1.67;;;;;;;26.05;38.87;99556.56;4469057;32;34571;-80
2022/08/05 00:09:19;;;;;;;2.75;1.00;;;;;;;26.05;39.13;99551.25;4463559;32;33682;-80
2022/08/05 00:11:50;;;;;;;1.92;1.15;;;;;;;25.88;39.44;99549.94;4463444;32;32227;-80
2022/08/05 00:14:27;;;;;;;2.50;1.40;;;;;;;25.94;39.30;99549.44;4463545;32;34484;-80
2022/08/05 00:16:57;;;;;;;1.30;0.93;;;;;;;25.73;39.78;99550.16;4463356;32;33888;-80
2022/08/05 00:19:29;;;;;;;3.00;1.75;;;;;;;25.77;39.23;99542.78;4463662;32;33715;-82
2022/08/05 00:22:13;;;;;;;2.37;1.50;;;;;;;25.76;39.33;99546.41;4469129;32;33145;-80
2022/08/05 00:24:45;;;;;;;2.65;1.33;;;;;;;25.74;38.63;99556.31;4478052;32;34435;-81
2022/08/05 00:27:23;;;;;;;5.00;1.33;;;;;;;25.81;39.18;99552.19;4465052;32;33715;-80
2022/08/05 00:30:05;;;;;;;2.53;1.30;;;;;;;25.78;39.57;99549.75;4462162;32;32864;-81
2022/08/05 00:32:39;;;;;;;1.90;1.02;;;;;;;25.69;39.45;99547.84;4463409;32;33814;-81
2022/08/05 00:35:08;;;;;;;2.20;1.35;;;;;;;25.85;38.91;99545.66;4463254;32;34494;-80
2022/08/05 00:37:37;;;;;;;4.93;1.33;;;;;;;25.78;38.87;99544.44;4476811;32;34656;-80
2022/08/05 00:40:22;;;;;;;1.92;1.10;;;;;;;25.74;38.95;99548.34;4486195;31;34494;-80
2022/08/05 00:42:57;;;;;;;2.25;1.20;;;;;;;25.77;38.69;99543.59;4480221;31;33260;-81
2022/08/05 00:45:27;;;;;;;5.45;1.35;;;;;;;25.79;38.93;99542.66;4477679;32;34065;-81
2022/08/05 00:48:07;;;;;;;4.00;1.20;;;;;;;25.71;38.87;99545.94;4479298;32;34729;-80
2022/08/05 00:50:38;;;;;;;1.02;0.90;;;;;;;25.77;38.78;99548.09;4478455;32;33792;-81
2022/08/05 00:53:09;;;;;;;2.83;1.52;;;;;;;25.87;39.00;99542.91;4484026;32;32878;-79
2022/08/05 00:55:58;;;;;;;3.03;1.00;;;;;;;25.66;39.12;99543.63;4485431;32;34608;-80
2022/08/05 00:58:29;;;;;;;1.48;1.20;;;;;;;25.77;38.65;99545.44;4480089;32;34729;-79
2022/08/05 01:00:57;;;;;;;14.30;1.83;;;;;;;25.62;39.07;99536.84;4479808;32;33760;-80
2022/08/05 01:03:28;;;;;;;4.55;1.80;;;;;;;25.54;39.49;99534.78;4479460;32;33565;-81
2022/08/05 01:06:01;;;;;;;3.62;1.37;;;;;;;25.50;39.61;99538.66;4479385;32;33632;-80
2022/08/05 01:08:33;;;;;;;3.10;1.25;;;;;;;25.67;39.33;99531.19;4485431;32;34598;-80
2022/08/05 01:11:15;;;;;;;4.15;1.12;;;;;;;25.69;39.31;99542.53;4485429;32;33613;-80
2022/08/05 01:14:02;;;;;;;3.42;1.45;;;;;;;25.53;39.08;99526.94;4479977;32;33085;-81
2022/08/05 01:16:39;;;;;;;2.25;1.23;;;;;;;25.58;38.97;99538.03;4479725;32;34347;-80
2022/08/05 01:19:19;;;;;;;2.05;1.15;;;;;;;25.64;39.01;99542.06;4479702;32;34599;-80
2022/08/05 01:22:11;;;;;;;2.70;1.37;;;;;;;25.57;39.22;99531.06;4471540;31;33412;-80
2022/08/05 01:25:14;;;;;;;1.95;1.02;;;;;;;25.59;39.63;99528.25;4479679;32;33421;-81
2022/08/05 01:27:54;;;;;;;;;;;;;;;25.33;39.63;99536.47;4434805;31;33719;-80
2022/08/05 01:30:25;;;;;;;3.67;1.30;;;;;;;25.55;39.21;99535.63;4474468;32;34451;-80
2022/08/05 01:33:03;;;;;;;4.00;1.30;;;;;;;25.55;39.25;99532.97;4483471;32;34057;-81
2022/08/05 01:35:36;;;;;;;2.17;1.20;;;;;;;25.33;39.43;99531.16;4472441;32;33310;-80
2022/08/05 01:38:22;;;;;;;2.35;1.25;;;;;;;25.52;38.37;99536.72;4465714;32;34314;-79
2022/08/05 01:40:58;;;;;;;2.45;1.30;;;;;;;25.29;39.06;99535.81;4468412;32;33061;-80
2022/08/05 01:43:30;;;;;;;2.50;1.30;;;;;;;25.34;38.31;99544.28;4474158;32;33853;-81
2022/08/05 01:46:00;;;;;;;2.42;1.37;;;;;;;25.32;38.78;99545.38;4478217;32;33449;-81
2022/08/05 01:48:45;;;;;;;1.62;1.10;;;;;;;25.28;39.23;99546.59;4478340;32;33738;-79
2022/08/05 01:51:18;;;;;;;1.25;0.82;;;;;;;25.46;38.51;99542.50;4484913;32;34870;-79
2022/08/05 01:53:50;;;;;;;4.07;1.30;;;;;;;25.43;38.87;99548.06;4478936;32;34354;-79
2022/08/05 01:56:29;;;;;;;2.42;1.30;;;;;;;25.51;39.78;99547.44;4473682;32;33583;-81
2022/08/05 01:59:21;;;;;;;1.98;1.08;;;;;;;25.30;39.66;99544.66;4478270;32;33873;-80
2022/08/05 02:01:53;;;;;;;2.17;1.17;;;;;;;25.25;39.40;99546.81;4473002;32;34879;-79
2022/08/05 02:04:24;;;;;;;1.62;1.00;;;;;;;25.09;40.33;99542.63;4478895;32;34442;-79
2022/08/05 02:06:53;;;;;;;2.05;1.35;;;;;;;25.21;40.13;99532.09;4482776;32;34007;-80
2022/08/05 02:09:23;;;;;;;1.83;1.15;;;;;;;25.13;39.90;99530.84;4484712;32;34439;-79
2022/08/05 02:12:01;;;;;;;4.50;1.35;;;;;;;25.15;40.83;99538.66;4470263;32;34775;-79
2022/08/05 02:14:33;;;;;;;1.15;0.98;;;;;;;25.07;40.71;99531.28;4470583;32;34647;-80
2022/08/05 02:17:05;;;;;;;2.33;1.35;;;;;;;25.18;40.76;99534.97;4478218;32;33073;-80
2022/08/05 02:19:37;;;;;;;1.60;1.20;;;;;;;25.02;40.14;99533.44;4479534;32;33879;-80
2022/08/05 02:22:17;;;;;;;2.23;1.20;;;;;;;25.03;40.48;99529.84;4479007;31;33990;-80
2022/08/05 02:25:02;;;;;;;2.03;1.15;;;;;;;25.08;40.00;99532.12;4484210;32;34465;-81
2022/08/05 02:27:33;;;;;;;2.60;1.62;;;;;;;25.03;40.13;99535.16;4479382;32;33184;-79
2022/08/05 02:30:25;;;;;;;2.55;1.45;;;;;;;25.04;40.18;99528.87;4471703;32;33460;-79
2022/08/05 02:32:55;;;;;;;1.73;1.20;;;;;;;24.92;40.76;99529.81;4468063;31;32495;-80
2022/08/05 02:35:26;;;;;;;2.60;1.10;;;;;;;24.91;40.84;99528.97;4465024;32;33104;-80
2022/08/05 02:38:07;;;;;;;1.70;1.20;;;;;;;24.78;40.96;99530.00;4475948;32;31649;-80
2022/08/05 02:40:38;;;;;;;3.25;1.33;;;;;;;24.95;40.46;99526.06;4482694;32;33899;-80
2022/08/05 02:43:08;;;;;;;1.52;1.23;;;;;;;24.84;40.24;99522.44;4481518;32;34966;-79
2022/08/05 02:45:40;;;;;;;1.53;1.10;;;;;;;24.91;40.33;99514.81;4478321;32;33439;-80
2022/08/05 02:48:21;;;;;;;3.75;1.73;;;;;;;24.87;40.28;99527.50;4467713;32;33121;-80
2022/08/05 02:50:58;;;;;;;1.95;1.15;;;;;;;24.72;40.54;99525.12;4467777;32;33909;-81
2022/08/05 02:53:27;;;;;;;1.70;1.03;;;;;;;24.74;41.07;99528.53;4469738;32;34486;-80
2022/08/05 02:56:10;;;;;;;2.90;1.67;;;;;;;24.65;40.79;99519.47;4477592;32;34563;-81
2022/08/05 02:58:47;;;;;;;1.67;1.35;;;;;;;24.64;40.60;99523.88;4472928;32;33729;-80
2022/08/05 03:01:24;;;;;;;2.00;1.20;;;;;;;24.57;40.96;99521.81;4464348;32;33454;-80
2022/08/05 03:03:57;;;;;;;2.72;1.35;;;;;;;24.56;41.06;99518.31;4462616;32;33803;-80
2022/08/05 03:06:41;;;;;;;2.85;1.45;;;;;;;24.48;41.46;99518.06;4466950;32;34582;-81
2022/08/05 03:09:27;;;;;;;2.35;1.20;;;;;;;24.47;41.27;99513.69;4466055;32;31852;-80
2022/08/05 03:12:07;;;;;;;3.10;1.30;;;;;;;24.48;41.36;99510.09;4464883;32;33362;-79
2022/08/05 03:14:36;;;;;;;3.12;1.70;;;;;;;24.37;41.05;99513.50;4477908;32;33948;-80
2022/08/05 03:17:15;;;;;;;2.00;1.20;;;;;;;24.43;41.52;99505.09;4471965;32;34294;-80
2022/08/05 03:19:43;;;;;;;5.95;1.62;;;;;;;24.44;41.78;99511.25;4472870;32;33443;-79
2022/08/05 03:22:13;;;;;;;2.00;1.27;;;;;;;24.38;41.79;99511.69;4471036;32;33559;-80
2022/08/05 03:24:49;;;;;;;2.60;1.48;;;;;;;24.47;41.49;99501.28;4470417;32;34920;-79
2022/08/05 03:27:20;;;;;;;1.58;1.00;;;;;;;24.34;41.49;99505.78;4471654;32;33926;-80
2022/08/05 03:29:49;;;;;;;1.60;1.25;;;;;;;24.26;41.39;99498.37;4462198;32;32865;-80
2022/08/05 03:32:38;;;;;;;2.97;1.42;;;;;;;24.22;41.44;99499.56;4468490;32;33621;-80
2022/08/05 03:35:08;;;;;;;3.45;1.37;;;;;;;24.32;41.35;99504.19;4463063;32;34670;-80
2022/08/05 03:37:36;;;;;;;2.85;1.37;;;;;;;24.37;41.43;99502.03;4460313;32;77488;-81
2022/08/05 03:40:14;;;;;;;2.00;1.30;;;;;;;24.31;41.46;99502.47;4474463;32;33972;-79
2022/08/05 03:42:59;;;;;;;3.22;1.45;;;;;;;24.20;41.89;99501.47;4478883;32;33883;-80
2022/08/05 03:45:47;;;;;;;3.35;1.45;;;;;;;24.17;42.39;99503.50;4478514;32;34154;-81
2022/08/05 03:48:27;;;;;;;3.92;1.70;;;;;;;24.22;42.47;99504.00;4478350;32;33612;-81
2022/08/05 03:51:01;;;;;;;2.17;1.12;;;;;;;24.06;43.03;99493.66;4484085;32;33351;-80
2022/08/05 03:53:58;;;;;;;5.20;1.80;;;;;;;23.95;43.46;99498.91;4483540;32;33798;-80
2022/08/05 03:56:47;;;;;;;3.53;1.60;;;;;;;24.11;43.64;99494.19;4469019;32;34073;-81
2022/08/05 03:59:21;;;;;;;1.85;1.10;;;;;;;24.02;44.06;99502.81;4462434;32;33809;-80
2022/08/05 04:01:53;;;;;;;2.35;1.50;;;;;;;24.11;44.17;99504.78;4462474;32;33249;-79
2022/08/05 04:04:31;;;;;;;1.37;1.10;;;;;;;24.06;44.56;99499.81;4462374;32;33689;-81
2022/08/05 04:07:00;;;;;;;3.15;1.58;;;;;;;24.10;44.61;99502.25;4462170;32;34757;-79
2022/08/05 04:09:34;;;;;;;3.03;1.20;;;;;;;24.11;44.86;99509.25;4471951;32;33741;-82
2022/08/05 04:12:04;;;;;;;3.65;1.27;;;;;;;24.11;44.95;99510.06;4471491;32;32794;-80
2022/08/05 04:14:52;;;;;;;2.60;1.30;;;;;;;24.16;45.25;99510.63;4462169;32;34424;-80
2022/08/05 04:17:25;;;;;;;4.05;1.67;;;;;;;24.17;45.58;99501.69;4463805;32;35274;-80
2022/08/05 04:20:23;;;;;;;3.08;1.40;;;;;;;24.18;46.09;99505.19;4460728;32;34002;-79
2022/08/05 04:22:51;;;;;;;4.35;2.00;;;;;;;24.01;46.78;99504.59;4462388;32;33279;-81
2022/08/05 04:25:24;;;;;;;4.35;1.60;;;;;;;24.06;47.11;99501.62;4474612;32;33969;-80
2022/08/05 04:28:13;;;;;;;2.12;1.40;;;;;;;24.12;47.04;99506.50;4460632;32;33945;-79
2022/08/05 04:30:42;;;;;;;2.17;1.40;;;;;;;24.24;45.70;99500.28;4470530;32;33084;-81
2022/08/05 04:33:11;;;;;;;3.62;2.28;;;;;;;24.22;45.61;99501.38;4470612;32;33021;-80
2022/08/05 04:35:41;;;;;;;3.50;1.48;;;;;;;24.28;45.64;99506.19;4467213;32;34528;-80
2022/08/05 04:38:32;;;;;;;2.40;1.37;;;;;;;24.36;45.59;99505.66;4460291;32;33295;-81
2022/08/05 04:41:09;;;;;;;4.30;1.73;;;;;;;24.24;46.04;99497.66;4460828;32;33548;-80
2022/08/05 04:43:39;;;;;;;3.08;1.60;;;;;;;24.54;45.51;99504.31;4464320;32;33979;-80
2022/08/05 04:46:20;;;;;;;2.45;1.45;;;;;;;24.47;45.90;99506.56;4477100;32;33476;-80
2022/08/05 04:48:56;;;;;;;4.40;1.80;;;;;;;24.61;45.49;99502.91;4479262;32;32086;-81
2022/08/05 04:51:27;;;;;;;4.35;2.12;;;;;;;24.63;45.63;99508.13;4463393;32;33130;-79
2022/08/05 04:53:58;;;;;;;2.87;1.60;;;;;;;24.89;45.54;99506.16;4475823;32;32674;-80
2022/08/05 04:56:29;;;;;;;3.08;2.10;;;;;;;24.85;45.51;99510.00;4469762;32;33709;-81
2022/08/05 04:59:04;;;;;;;3.30;1.62;;;;;;;24.87;45.61;99503.63;4463542;32;34575;-80
2022/08/05 05:01:53;;;;;;;3.10;1.67;;;;;;;25.03;45.61;99508.63;4464349;32;34392;-82
2022/08/05 05:04:42;;;;;;;3.55;1.77;;;;;;;25.16;44.58;99511.16;4470268;32;33310;-80
2022/08/05 05:07:19;;;;;;;3.25;1.70;;;;;;;25.38;43.80;99507.72;4468280;32;33955;-80
2022/08/05 05:09:57;;;;;;;3.30;1.92;;;;;;;25.46;43.93;99505.31;4463765;32;34014;-80
2022/08/05 05:12:25;;;;;;;3.90;1.33;;;;;;;25.92;41.60;99511.50;4463371;32;33764;-80
2022/08/05 05:14:55;;;;;;;4.60;1.65;;;;;;;26.04;41.33;99507.00;4449385;32;33866;-81
2022/08/05 05:17:24;;;;;;;3.87;1.98;;;;;;;26.86;39.69;99495.88;4463266;32;34690;-79
2022/08/05 05:20:13;;;;;;;4.37;1.60;;;;;;;27.59;38.52;99499.41;4463359;32;33767;-81
2022/08/05 05:22:43;;;;;;;6.78;1.98;;;;;;;28.28;36.51;99507.50;4467998;32;34502;-80
2022/08/05 05:25:13;;;;;;;3.70;2.13;;;;;;;28.92;35.60;99511.50;4465789;32;32973;-80
2022/08/05 05:27:45;;;;;;;2.65;1.60;;;;;;;29.63;33.46;99507.56;4465242;32;35791;-79
2022/08/05 05:30:23;;;;;;;2.90;1.30;;;;;;;29.61;32.84;99503.34;4470788;32;34523;-79
2022/08/05 05:32:57;;;;;;;1.95;1.20;;;;;;;29.81;32.88;99504.97;4474190;32;33562;-80
2022/08/05 05:35:31;;;;;;;3.97;1.52;;;;;;;30.22;32.52;99496.56;4471957;32;34122;-80
2022/08/05 05:38:09;;;;;;;3.85;1.33;;;;;;;30.07;32.69;99496.25;4476240;32;33855;-80
2022/08/05 05:40:42;;;;;;;1.58;1.23;;;;;;;29.97;32.28;99507.84;4462324;32;34616;-80
2022/08/05 05:43:21;;;;;;;2.70;1.60;;;;;;;30.17;31.97;99497.84;4461456;32;34354;-79
2022/08/05 05:46:10;;;;;;;3.87;1.27;;;;;;;30.23;32.07;99501.78;4462764;31;33420;-79
2022/08/05 05:48:46;;;;;;;3.00;1.85;;;;;;;29.98;32.43;99500.66;4462825;32;34072;-80
2022/08/05 05:51:20;;;;;;;;;;;;;;;30.01;32.23;99500.38;4472449;32;34650;-80
2022/08/05 05:53:52;;;;;;;2.72;1.60;;;;;;;29.83;32.54;99496.81;4472032;32;33549;-79
2022/08/05 05:56:27;;;;;;;5.12;1.90;;;;;;;29.99;32.39;99502.34;4468052;32;33165;-80
2022/08/05 05:59:03;;;;;;;8.55;1.80;;;;;;;29.83;32.50;99497.63;4464759;32;33999;-80
2022/08/05 06:01:35;;;;;;;8.75;1.60;;;;;;;30.09;32.58;99492.44;4463234;32;34578;-80
2022/08/05 06:04:07;;;;;;;3.90;1.60;;;;;;;29.96;32.27;99497.28;4474500;32;33609;-80
2022/08/05 06:06:41;;;;;;;5.32;1.65;;;;;;;30.12;31.97;99494.78;4464122;32;32827;-80
2022/08/05 06:09:12;;;;;;;;;;;;;;;30.00;32.95;99496.00;4467839;32;33892;-81
2022/08/05 06:11:52;;;;;;;2.95;1.45;;;;;;;30.03;32.60;99498.34;4465237;32;34207;-81
2022/08/05 06:14:28;;;;;;;2.75;1.33;;;;;;;29.73;32.15;99495.00;4477693;32;34116;-79
2022/08/05 06:16:56;;;;;;;5.53;1.67;;;;;;;29.49;32.90;99498.16;4469403;32;33675;-80
2022/08/05 06:19:25;;;;;;;3.08;1.40;;;;;;;29.08;33.25;99494.91;4474565;31;33880;-80
2022/08/05 06:22:03;;;;;;;3.20;1.65;;;;;;;29.23;33.39;99497.97;4470442;31;34841;-81
2022/08/05 06:24:35;;;;;;;;;;;;;;;29.01;33.81;99503.63;4474476;32;33805;-81
2022/08/05 06:27:05;;;;;;;3.60;1.20;;;;;;;29.08;33.24;99500.25;4475121;31;34008;-79
2022/08/05 06:29:53;;;;;;;3.30;1.40;;;;;;;28.67;34.03;99498.72;4478488;31;34595;-80
2022/08/05 06:32:35;;;;;;;3.40;1.45;;;;;;;28.76;33.47;99495.22;4473482;31;33959;-80
2022/08/05 06:35:05;;;;;;;7.20;1.85;;;;;;;29.17;32.78;99503.91;4471209;31;34466;-81
2022/08/05 06:37:54;;;;;;;2.85;1.10;;;;;;;28.94;32.44;99504.16;4473160;31;33831;-80
2022/08/05 06:40:29;;;;;;;2.20;1.23;;;;;;;28.83;32.47;99496.34;4470821;31;34475;-80
2022/08/05 06:43:00;;;;;;;2.30;1.30;;;;;;;28.86;32.46;99495.19;4479212;31;34782;-80
2022/08/05 06:45:28;;;;;;;3.83;1.73;;;;;;;28.91;32.50;99498.28;4481752;31;33578;-80
2022/08/05 06:48:17;;;;;;;4.62;1.80;;;;;;;28.76;33.15;99499.72;4481089;31;33704;-80
2022/08/05 06:51:06;;;;;;;6.00;1.50;;;;;;;29.02;32.37;99499.94;4481446;31;33809;-82
2022/08/05 06:53:38;;;;;;;4.12;1.55;;;;;;;29.28;32.17;99500.22;4485004;31;34097;-80
2022/08/05 06:56:08;;;;;;;3.37;1.45;;;;;;;29.29;32.43;99504.59;4481210;31;33349;-80
2022/08/05 06:58:54;;;;;;;2.67;1.52;;;;;;;29.34;31.48;99504.97;4482890;31;33673;-80
2022/08/05 07:01:23;;;;;;;1.83;1.02;;;;;;;29.26;31.56;99496.84;4480584;31;34587;-82
2022/08/05 07:04:01;;;;;;;1.73;1.10;;;;;;;29.62;31.75;99499.66;4481372;31;34758;-81
2022/08/05 07:06:30;;;;;;;7.10;1.58;;;;;;;29.62;31.18;99503.19;4478919;31;32826;-80
2022/08/05 07:09:00;;;;;;;2.72;1.10;;;;;;;29.59;31.25;99503.47;4462425;31;32755;-81
2022/08/05 07:11:36;;;;;;;2.92;1.20;;;;;;;29.91;29.72;99505.78;4464906;32;34613;-81
2022/08/05 07:17:01;;;;;;;3.95;1.33;;;;;;;29.95;28.61;99509.81;4477196;31;32122;-81
2022/08/05 07:19:52;;;;;;;1.70;0.90;;;;;;;30.02;29.28;99510.06;4472630;31;33114;-80
2022/08/05 07:22:41;;;;;;;2.40;1.35;;;;;;;30.06;30.34;99507.91;4477142;31;34601;-80
2022/08/05 07:25:10;;;;;;;2.37;1.23;;;;;;;30.12;28.42;99501.97;4470569;32;33893;-80
2022/08/05 07:28:00;;;;;;;6.53;1.20;;;;;;;30.53;29.00;99497.06;4461090;32;34381;-80
2022/08/05 07:30:37;;;;;;;1.98;1.00;;;;;;;30.55;29.21;99498.59;4469046;31;33015;-81
2022/08/05 07:33:09;;;;;;;2.90;1.12;;;;;;;30.44;29.68;99504.19;4475658;31;35905;-80
2022/08/05 07:35:45;;;;;;;1.77;1.00;;;;;;;30.52;27.97;99500.75;4477331;32;33806;-80
2022/08/05 07:38:35;;;;;;;2.28;1.20;;;;;;;30.60;28.43;99498.16;4472725;32;33891;-80
2022/08/05 07:41:15;;;;;;;2.20;1.35;;;;;;;30.73;28.51;99489.72;4477456;31;32702;-81
2022/08/05 07:44:08;;;;;;;3.65;1.10;;;;;;;30.91;29.42;99493.25;4470355;32;33637;-81
2022/08/05 07:46:47;;;;;;;2.45;1.25;;;;;;;30.81;28.20;99490.63;4470181;32;33706;-80
2022/08/05 07:49:18;;;;;;;2.58;1.10;;;;;;;30.95;27.90;99494.62;4476441;32;33411;-80
2022/08/05 07:51:47;;;;;;;2.05;1.10;;;;;;;31.05;27.95;99494.53;4467916;32;33220;-81
2022/08/05 07:54:25;;;;;;;3.33;1.27;;;;;;;31.00;27.29;99489.63;4469081;32;33717;-80
2022/08/05 07:57:01;;;;;;;1.62;1.00;;;;;;;31.14;27.87;99490.87;4467382;31;34938;-81
2022/08/05 07:59:51;;;;;;;1.75;0.95;;;;;;;31.32;27.61;99493.53;4468672;31;34227;-81
2022/08/05 08:02:24;;;;;;;2.62;1.67;;;;;;;31.47;28.05;99488.44;4471711;32;33973;-81
2022/08/05 08:04:58;;;;;;;1.30;0.82;;;;;;;31.36;27.01;99494.88;4461843;32;33921;-82
2022/08/05 08:07:28;;;;;;;1.95;0.90;;;;;;;31.76;27.72;99495.28;4466846;32;34945;-80
2022/08/05 08:10:07;;;;;;;1.08;0.90;;;;;;;31.80;27.66;99494.81;4472005;32;33551;-81
2022/08/05 08:12:36;;;;;;;2.17;0.95;;;;;;;31.86;27.47;99501.34;4467969;32;33266;-81
2022/08/05 08:15:19;;;;;;;1.85;1.10;;;;;;;31.81;27.02;99496.47;4472927;32;34558;-81
2022/08/05 08:18:08;;;;;;;1.80;1.00;;;;;;;31.88;27.59;99491.31;4473652;31;34427;-80
2022/08/05 08:20:42;;;;;;;2.75;1.62;;;;;;;31.95;27.04;99488.84;4479754;32;33426;-81
2022/08/05 08:23:31;;;;;;;1.80;1.35;;;;;;;31.84;26.19;99493.44;4473067;32;33367;-81
2022/08/05 08:26:21;;;;;;;5.22;2.12;;;;;;;31.99;27.03;99484.81;4477944;32;34514;-81
2022/08/05 08:28:58;;;;;;;2.22;1.58;;;;;;;32.25;26.04;99487.41;4474293;32;34700;-82
2022/08/05 08:31:49;;;;;;;2.33;1.17;;;;;;;31.84;26.68;99490.78;4475748;31;34585;-80
2022/08/05 08:34:18;;;;;;;;;;;;;;;32.34;26.57;99486.41;4477799;31;33633;-80
2022/08/05 08:36:58;;;;;;;2.00;1.35;;;;;;;32.31;25.67;99478.69;4488010;31;34253;-81
2022/08/05 08:39:33;;;;;;;1.40;0.90;;;;;;;32.45;26.44;99483.41;4483045;31;34034;-81
2022/08/05 08:42:06;;;;;;;1.48;0.88;;;;;;;32.65;25.85;99493.88;4479959;31;33490;-81
2022/08/05 08:44:57;;;;;;;4.22;1.25;;;;;;;32.48;25.72;99484.94;4478837;31;33234;-81
2022/08/05 08:47:49;;;;;;;3.40;1.73;;;;;;;32.78;24.80;99485.28;4474226;31;33946;-80
2022/08/05 08:50:41;;;;;;;2.87;1.55;;;;;;;32.73;24.58;99489.31;4479428;32;33999;-80
2022/08/05 08:53:35;;;;;;;4.15;1.52;;;;;;;32.82;25.05;99484.78;4479321;32;34353;-81
2022/08/05 08:56:05;;;;;;;3.75;1.95;;;;;;;32.97;25.39;99490.31;4479301;31;33444;-81
2022/08/05 08:58:35;;;;;;;1.30;0.93;;;;;;;32.88;25.47;99485.97;4479952;32;33203;-81
2022/08/05 09:01:15;;;;;;;2.67;1.35;;;;;;;32.51;25.08;99482.78;4485319;32;33544;-82
2022/08/05 09:03:48;;;;;;;3.70;1.37;;;;;;;32.55;24.85;99485.13;4468604;32;33805;-82
2022/08/05 09:06:23;;;;;;;3.97;1.23;;;;;;;32.96;25.15;99480.59;4468124;32;33119;-81
2022/08/05 09:08:59;;;;;;;2.30;1.17;;;;;;;32.98;26.06;99480.41;4477607;32;34298;-82
2022/08/05 09:11:29;;;;;;;1.87;1.00;;;;;;;33.29;24.79;99481.38;4464107;32;34422;-81
2022/08/05 09:14:18;;;;;;;2.27;1.27;;;;;;;33.00;25.54;99473.84;4462031;32;33563;-82
2022/08/05 09:17:08;;;;;;;3.80;1.20;;;;;;;33.07;25.23;99471.34;4461949;32;33030;-82
2022/08/05 09:19:59;;;;;;;1.58;0.93;;;;;;;33.52;24.65;99476.13;4469172;32;33494;-81
2022/08/05 09:23:05;;;;;;;2.15;1.05;;;;;;;33.51;24.49;99473.59;4469745;32;33558;-81
2022/08/05 09:25:39;;;;;;;5.43;1.20;;;;;;;33.60;24.36;99474.44;4471972;32;33516;-82
2022/08/05 09:28:28;;;;;;;;;;;;;;;33.81;24.45;99477.38;4479775;32;33437;-81
2022/08/05 09:31:04;;;;;;;2.30;1.15;;;;;;;34.03;23.33;99469.53;4479257;32;33903;-80
2022/08/05 09:33:54;;;;;;;3.03;1.20;;;;;;;34.06;24.41;99455.72;4479820;32;33962;-82
2022/08/05 09:36:38;;;;;;;1.98;1.20;;;;;;;33.98;23.34;99462.81;4478985;32;33651;-81
2022/08/05 09:39:23;;;;;;;1.62;1.00;;;;;;;34.11;23.48;99439.88;4468784;32;34247;-81
2022/08/05 09:42:09;;;;;;;1.67;0.90;;;;;;;34.32;22.98;99445.47;4463605;32;33331;-81
2022/08/05 09:44:46;;;;;;;1.95;1.08;;;;;;;34.30;23.60;99447.50;4476446;32;34406;-80
2022/08/05 09:47:21;;;;;;;2.60;1.52;;;;;;;34.44;22.66;99439.66;4485274;32;32803;-81
2022/08/05 09:49:52;;;;;;;2.30;1.08;;;;;;;34.51;23.01;99440.62;4479575;32;34005;-81
2022/08/05 09:52:33;;;;;;;2.12;1.15;;;;;;;34.74;23.11;99437.91;4478326;32;32969;-82
2022/08/05 09:55:03;;;;;;;2.00;1.10;;;;;;;34.78;24.27;99442.75;4479504;32;34565;-80
2022/08/05 09:57:52;;;;;;;1.25;0.82;;;;;;;34.71;22.55;99440.97;4479523;32;34256;-81
2022/08/05 10:00:26;;;;;;;1.77;1.23;;;;;;;35.00;22.42;99429.41;4479414;32;34156;-81
2022/08/05 10:02:57;;;;;;;1.95;0.90;;;;;;;35.03;23.09;99431.72;4480839;32;33435;-81
2022/08/05 10:05:29;;;;;;;1.83;1.33;;;;;;;35.03;22.72;99431.72;4484793;32;34074;-81
2022/08/05 10:08:07;;;;;;;4.65;1.15;;;;;;;34.80;22.36;99423.72;4478746;32;34399;-80
2022/08/05 10:10:55;;;;;;;1.90;1.20;;;;;;;34.97;22.46;99427.09;4479217;32;33377;-82
2022/08/05 10:13:30;;;;;;;4.12;2.72;;;;;;;35.23;22.63;99423.94;4477642;32;34726;-81
2022/08/05 10:16:30;;;;;;;3.22;1.58;;;;;;;35.00;21.62;99414.06;4479203;32;33734;-81
2022/08/05 10:19:02;;;;;;;5.10;1.65;;;;;;;35.24;21.12;99412.97;4478968;31;34634;-80
2022/08/05 10:21:37;;;;;;;2.42;1.00;;;;;;;34.98;21.76;99415.25;4492520;31;34002;-80
2022/08/05 10:24:12;;;;;;;2.55;1.30;;;;;;;35.24;21.93;99412.97;4484229;31;33974;-79
2022/08/05 10:26:41;;;;;;;1.50;0.90;;;;;;;35.14;20.62;99412.44;4473304;32;33879;-81
2022/08/05 10:29:21;;;;;;;2.10;1.27;;;;;;;35.57;21.21;99409.03;4478587;32;33901;-80
2022/08/05 10:32:10;;;;;;;1.77;1.10;;;;;;;35.29;21.42;99395.41;4484876;31;33729;-80
2022/08/05 10:35:00;;;;;;;2.60;1.10;;;;;;;35.57;21.10;99395.53;4495042;31;33807;-81
2022/08/05 10:37:30;;;;;;;1.98;0.88;;;;;;;35.69;21.41;99399.47;4480934;31;32934;-80
2022/08/05 10:40:21;;;;;;;2.50;1.12;;;;;;;35.87;21.47;99397.16;4478602;32;33413;-81
2022/08/05 10:42:59;;;;;;;2.58;1.25;;;;;;;35.94;21.28;99402.62;4484730;32;33361;-81
2022/08/05 10:45:30;;;;;;;1.83;1.20;;;;;;;36.26;21.73;99390.50;4478112;32;33827;-80
2022/08/05 10:48:28;;;;;;;4.70;1.58;;;;;;;36.27;20.22;99396.75;4476627;31;33920;-80
2022/08/05 10:51:09;;;;;;;3.37;1.35;;;;;;;36.43;20.82;99398.34;4472985;31;34430;-80
2022/08/05 10:53:55;;;;;;;1.65;0.90;;;;;;;36.48;21.06;99391.31;4472361;32;33093;-81
2022/08/05 10:56:44;;;;;;;1.77;0.88;;;;;;;36.44;19.60;99386.50;4467472;32;34601;-81
2022/08/05 10:59:17;;;;;;;2.97;1.12;;;;;;;36.63;20.10;99387.72;4462889;32;34714;-81
2022/08/05 11:02:07;;;;;;;2.37;1.45;;;;;;;36.90;20.54;99384.19;4464195;32;33833;-81
2022/08/05 11:04:46;;;;;;;2.40;1.08;;;;;;;37.11;20.22;99385.16;4470360;32;33022;-81
2022/08/05 11:07:17;;;;;;;2.47;1.58;;;;;;;37.20;19.07;99380.41;4481962;31;35925;-81
2022/08/05 11:10:01;;;;;;;1.80;1.10;;;;;;;36.63;18.36;99376.91;4483675;31;34001;-81
2022/08/05 11:12:45;;;;;;;4.28;1.15;;;;;;;36.68;18.32;99375.31;4482218;31;33951;-82
2022/08/05 11:15:26;;;;;;;1.33;0.90;;;;;;;36.59;18.74;99375.66;4480160;31;33419;-83
2022/08/05 11:18:26;;;;;;;1.10;0.80;;;;;;;37.12;19.72;99376.03;4477542;31;34598;-81
2022/08/05 11:21:01;;;;;;;2.87;1.02;;;;;;;37.41;18.66;99383.00;4479240;32;33780;-81
2022/08/05 11:23:36;;;;;;;1.95;0.98;;;;;;;37.48;18.64;99375.75;4481032;32;33810;-82
2022/08/05 11:26:25;;;;;;;2.25;1.12;;;;;;;37.66;18.76;99380.62;4481427;32;33350;-83
2022/08/05 11:29:02;;;;;;;2.15;1.00;;;;;;;37.66;18.01;99368.97;4484598;31;34570;-82
2022/08/05 11:31:43;;;;;;;2.55;1.30;;;;;;;37.12;18.43;99373.31;4479707;31;34364;-82
2022/08/05 11:34:38;;;;;;;2.10;1.23;;;;;;;37.93;17.71;99361.72;4477363;31;33372;-82
2022/08/05 11:37:48;;;;;;;2.37;1.00;;;;;;;37.78;18.03;99360.03;4484375;31;32939;-81
2022/08/05 11:41:01;;;;;;;2.80;1.08;;;;;;;38.04;16.97;99363.03;4481739;31;33818;-82
2022/08/05 11:43:54;;;;;;;1.45;0.82;;;;;;;38.17;17.29;99365.75;4481630;31;34672;-82
2022/08/05 11:46:39;;;;;;;1.87;1.17;;;;;;;38.52;16.98;99360.16;4479376;31;33476;-82
2022/08/05 11:49:27;;;;;;;1.58;1.00;;;;;;;38.54;17.67;99364.34;4478409;32;33707;-83
2022/08/05 11:52:01;;;;;;;2.03;1.15;;;;;;;38.45;17.45;99370.16;4462465;32;33764;-82
2022/08/05 11:54:39;;;;;;;2.70;1.30;;;;;;;38.42;17.30;99361.37;4491608;31;34722;-82
2022/08/05 11:57:11;;;;;;;3.92;1.17;;;;;;;38.68;17.25;99373.25;4486066;31;33964;-83
2022/08/05 11:59:59;;;;;;;2.03;0.93;;;;;;;38.85;16.72;99362.81;4478112;31;33377;-82
2022/08/05 12:02:40;;;;;;;1.57;1.00;;;;;;;38.70;16.77;99362.22;4477525;31;34354;-82
2022/08/05 12:05:25;;;;;;;2.20;1.30;;;;;;;38.72;16.81;99360.97;4470600;31;33528;-82
2022/08/05 12:08:07;;;;;;;1.58;1.15;;;;;;;39.09;17.34;99363.19;4470701;31;34766;-82
2022/08/05 12:10:45;;;;;;;1.62;0.90;;;;;;;39.18;16.51;99364.62;4477595;31;32994;-82
2022/08/05 12:13:17;;;;;;;2.03;1.05;;;;;;;39.36;16.02;99362.06;4482261;31;33298;-83
2022/08/05 12:16:07;;;;;;;1.50;0.98;;;;;;;39.65;16.55;99357.97;4482054;32;33971;-82
2022/08/05 12:18:44;;;;;;;2.35;1.02;;;;;;;39.34;16.54;99353.28;4478146;31;33475;-83
2022/08/05 12:21:23;;;;;;;2.35;1.05;;;;;;;39.47;15.47;99353.25;4483933;31;33250;-83
2022/08/05 12:23:53;;;;;;;1.90;0.90;;;;;;;39.61;15.86;99343.16;4478775;31;33821;-83
2022/08/05 12:26:21;;;;;;;0.93;0.80;;;;;;;39.38;15.74;99346.41;4484096;31;33027;-82
2022/08/05 12:28:51;;;;;;;1.55;0.80;;;;;;;39.64;17.36;99344.59;4487058;31;33672;-83